createdAt,value
2016-05-30T00:00:35.310Z,0
2016-05-30T00:01:35.469Z,0
2016-05-30T00:02:35.455Z,0
2016-05-30T00:03:35.458Z,0
2016-05-30T00:04:35.461Z,0
2016-05-30T00:05:35.464Z,0
2016-05-30T00:06:35.466Z,0
2016-05-30T00:07:35.313Z,0
2016-05-30T00:08:35.315Z,0
2016-05-30T00:09:35.521Z,0
2016-05-30T00:10:35.477Z,0
2016-05-30T00:11:35.465Z,0
2016-05-30T00:12:35.482Z,0
2016-05-30T00:13:35.470Z,0
2016-05-30T00:14:35.473Z,0
2016-05-30T00:15:35.475Z,0
2016-05-30T00:16:35.524Z,0
2016-05-30T00:17:35.527Z,0
2016-05-30T00:18:35.529Z,0
2016-05-30T00:19:35.329Z,0
2016-05-30T00:20:35.489Z,0
2016-05-30T00:21:35.631Z,0
2016-05-30T00:22:35.478Z,0
2016-05-30T00:23:35.325Z,0
2016-05-30T00:24:35.483Z,0
2016-05-30T00:25:35.486Z,0
2016-05-30T00:26:35.472Z,0
2016-05-30T00:27:35.319Z,0
2016-05-30T00:28:35.495Z,0
2016-05-30T00:29:35.466Z,0
2016-05-30T00:30:35.500Z,0
2016-05-30T00:31:35.486Z,0
2016-05-30T00:32:35.474Z,0
2016-05-30T00:33:35.476Z,0
2016-05-30T00:34:36.338Z,0
2016-05-30T00:35:36.388Z,0
2016-05-30T00:36:36.000Z,0
2016-05-30T00:37:36.581Z,0
2016-05-30T00:38:35.177Z,0
2016-05-30T00:39:35.492Z,0
2016-05-30T00:40:35.480Z,0
2016-05-30T00:41:35.483Z,0
2016-05-30T00:42:35.501Z,0
2016-05-30T00:43:35.332Z,0
2016-05-30T00:44:36.490Z,0
2016-05-30T00:45:37.227Z,0
2016-05-30T00:46:35.340Z,0
2016-05-30T00:47:36.749Z,0
2016-05-30T00:48:36.079Z,0
2016-05-30T00:50:53.322Z,0
2016-05-30T00:51:37.290Z,0
2016-05-30T00:52:36.184Z,0
2016-05-30T00:53:35.498Z,0
2016-05-30T00:54:35.501Z,0
2016-05-30T00:55:35.629Z,0
2016-05-30T00:56:35.492Z,0
2016-05-30T00:57:35.338Z,0
2016-05-30T00:58:35.434Z,0
2016-05-30T00:59:35.500Z,0
2016-05-30T01:00:36.705Z,0
2016-05-30T01:01:35.505Z,0
2016-05-30T01:02:35.335Z,0
2016-05-30T01:03:36.229Z,0
2016-05-30T01:04:35.794Z,0
2016-05-30T01:05:35.500Z,0
2016-05-30T01:06:36.190Z,0
2016-05-30T01:07:35.443Z,0
2016-05-30T01:08:35.508Z,0
2016-05-30T01:09:35.495Z,0
2016-05-30T01:10:35.357Z,0
2016-05-30T01:11:35.343Z,0
2016-05-30T01:12:35.503Z,0
2016-05-30T01:13:35.349Z,0
2016-05-30T01:14:35.337Z,0
2016-05-30T01:15:35.511Z,0
2016-05-30T01:16:35.343Z,0
2016-05-30T01:17:35.501Z,0
2016-05-30T01:18:35.504Z,0
2016-05-30T01:19:35.506Z,0
2016-05-30T01:20:35.509Z,0
2016-05-30T01:21:35.465Z,0
2016-05-30T01:22:35.546Z,0
2016-05-30T01:23:35.501Z,0
2016-05-30T01:24:35.536Z,0
2016-05-30T01:25:35.351Z,0
2016-05-30T01:26:35.526Z,0
2016-05-30T01:27:35.512Z,0
2016-05-30T01:28:35.500Z,0
2016-05-30T01:29:35.517Z,0
2016-05-30T01:30:35.505Z,0
2016-05-30T01:31:35.508Z,0
2016-05-30T01:32:35.510Z,0
2016-05-30T01:33:35.200Z,0
2016-05-30T01:34:35.515Z,0
2016-05-30T01:35:35.503Z,0
2016-05-30T01:36:35.474Z,0
2016-05-30T01:37:35.914Z,0
2016-05-30T01:38:35.510Z,0
2016-05-30T01:39:35.201Z,0
2016-05-30T01:40:35.516Z,0
2016-05-30T01:41:35.503Z,0
2016-05-30T01:42:35.349Z,0
2016-05-30T01:43:35.508Z,0
2016-05-30T01:44:35.511Z,0
2016-05-30T01:45:35.513Z,0
2016-05-30T01:46:35.516Z,0
2016-05-30T01:47:35.518Z,0
2016-05-30T01:48:35.521Z,0
2016-05-30T01:49:35.509Z,0
2016-05-30T01:50:35.512Z,0
2016-05-30T01:51:35.889Z,0
2016-05-30T01:52:35.204Z,0
2016-05-30T01:54:38.022Z,0
2016-05-30T01:55:37.165Z,0
2016-05-30T01:56:35.824Z,0
2016-05-30T01:57:36.358Z,0
2016-05-30T01:58:35.517Z,0
2016-05-30T01:59:35.520Z,0
2016-05-30T02:00:35.507Z,0
2016-05-30T02:01:35.511Z,0
2016-05-30T02:02:35.528Z,0
2016-05-30T02:03:37.718Z,0
2016-05-30T02:04:35.830Z,4
2016-05-30T02:05:36.661Z,4
2016-05-30T02:06:36.430Z,4
2016-05-30T02:07:35.714Z,0
2016-05-30T02:09:35.921Z,4
2016-05-30T02:10:35.972Z,4
2016-05-30T02:11:36.912Z,8
2016-05-30T02:12:35.524Z,4
2016-05-30T02:13:35.418Z,4
2016-05-30T02:14:35.529Z,4
2016-05-30T02:15:35.516Z,8
2016-05-30T02:16:35.722Z,4
2016-05-30T02:17:35.382Z,8
2016-05-30T02:18:35.727Z,8
2016-05-30T02:19:37.293Z,8
2016-05-30T02:20:35.515Z,12
2016-05-30T02:21:35.392Z,12
2016-05-30T02:22:35.504Z,16
2016-05-30T02:23:35.584Z,20
2016-05-30T02:24:35.993Z,20
2016-05-30T02:25:35.528Z,20
2016-05-30T02:26:35.546Z,24
2016-05-30T02:27:35.517Z,28
2016-05-30T02:28:35.520Z,32
2016-05-30T02:29:35.523Z,36
2016-05-30T02:30:35.509Z,40
2016-05-30T02:31:35.512Z,44
2016-05-30T02:32:35.530Z,52
2016-05-30T02:33:35.518Z,56
2016-05-30T02:34:35.552Z,64
2016-05-30T02:35:35.523Z,72
2016-05-30T02:36:35.744Z,80
2016-05-30T02:37:35.919Z,88
2016-05-30T02:38:35.531Z,100
2016-05-30T02:39:35.531Z,108
2016-05-30T02:40:35.561Z,120
2016-05-30T02:41:35.590Z,132
2016-05-30T02:42:35.464Z,144
2016-05-30T02:43:35.478Z,160
2016-05-30T02:44:35.655Z,176
2016-05-30T02:45:35.668Z,192
2016-05-30T02:46:35.680Z,208
2016-05-30T02:47:35.708Z,220
2016-05-30T02:48:35.704Z,236
2016-05-30T02:49:35.714Z,256
2016-05-30T02:50:35.704Z,272
2016-05-30T02:51:36.164Z,296
2016-05-30T02:52:35.576Z,316
2016-05-30T02:53:35.566Z,340
2016-05-30T02:54:35.712Z,368
2016-05-30T02:55:35.716Z,396
2016-05-30T02:56:35.720Z,424
2016-05-30T02:57:35.724Z,456
2016-05-30T02:58:35.634Z,484
2016-05-30T02:59:35.731Z,512
2016-05-30T03:00:35.735Z,544
2016-05-30T03:01:35.723Z,572
2016-05-30T03:02:35.725Z,608
2016-05-30T03:03:35.417Z,636
2016-05-30T03:04:35.592Z,672
2016-05-30T03:05:35.579Z,708
2016-05-30T03:06:35.816Z,740
2016-05-30T03:07:36.256Z,772
2016-05-30T03:08:35.727Z,796
2016-05-30T03:09:35.731Z,820
2016-05-30T03:10:35.749Z,840
2016-05-30T03:11:35.736Z,864
2016-05-30T03:12:37.317Z,896
2016-05-30T03:13:37.772Z,932
2016-05-30T03:14:36.837Z,968
2016-05-30T03:15:36.137Z,1008
2016-05-30T03:16:35.265Z,1048
2016-05-30T03:17:36.486Z,1092
2016-05-30T03:18:35.567Z,1136
2016-05-30T03:19:35.569Z,1184
2016-05-30T03:20:35.744Z,1240
2016-05-30T03:21:35.747Z,1300
2016-05-30T03:22:38.546Z,1380
2016-05-30T03:23:36.283Z,1468
2016-05-30T03:24:37.068Z,1576
2016-05-30T03:25:36.727Z,1700
2016-05-30T03:26:36.166Z,1828
2016-05-30T03:27:36.028Z,1952
2016-05-30T03:28:37.500Z,2064
2016-05-30T03:29:36.612Z,2148
2016-05-30T03:30:35.818Z,2224
2016-05-30T03:31:36.539Z,2288
2016-05-30T03:32:36.089Z,2356
2016-05-30T03:33:35.998Z,2432
2016-05-30T03:34:36.578Z,2508
2016-05-30T03:35:35.737Z,2572
2016-05-30T03:36:35.912Z,2640
2016-05-30T03:37:37.118Z,2716
2016-05-30T03:38:35.824Z,2800
2016-05-30T03:39:36.343Z,2888
2016-05-30T03:40:36.672Z,2948
2016-05-30T03:41:35.942Z,3008
2016-05-30T03:42:35.742Z,3088
2016-05-30T03:43:35.728Z,3184
2016-05-30T03:44:36.278Z,3296
2016-05-30T03:45:35.765Z,3416
2016-05-30T03:46:35.752Z,3560
2016-05-30T03:47:35.630Z,3704
2016-05-30T03:48:35.725Z,3832
2016-05-30T03:49:35.728Z,3948
2016-05-30T03:50:35.747Z,4068
2016-05-30T03:51:36.422Z,4176
2016-05-30T03:52:36.236Z,4260
2016-05-30T03:53:35.739Z,4332
2016-05-30T03:54:35.757Z,4392
2016-05-30T03:55:35.744Z,4360
2016-05-30T03:56:35.732Z,4248
2016-05-30T03:57:35.750Z,4128
2016-05-30T03:58:35.768Z,4060
2016-05-30T03:59:35.755Z,3924
2016-05-30T04:00:35.758Z,3808
2016-05-30T04:01:35.760Z,3724
2016-05-30T04:02:35.748Z,3596
2016-05-30T04:03:35.609Z,3524
2016-05-30T04:04:35.597Z,3536
2016-05-30T04:05:35.756Z,3608
2016-05-30T04:06:35.806Z,3708
2016-05-30T04:07:36.323Z,3832
2016-05-30T04:08:35.592Z,3980
2016-05-30T04:09:35.767Z,4160
2016-05-30T04:10:35.754Z,4368
2016-05-30T04:11:35.773Z,4608
2016-05-30T04:12:35.603Z,4864
2016-05-30T04:13:35.761Z,5092
2016-05-30T04:14:35.765Z,5268
2016-05-30T04:15:35.767Z,5380
2016-05-30T04:16:35.770Z,5480
2016-05-30T04:17:35.773Z,5416
2016-05-30T04:18:35.775Z,5420
2016-05-30T04:19:35.481Z,5376
2016-05-30T04:20:35.765Z,5404
2016-05-30T04:21:36.752Z,5372
2016-05-30T04:22:35.786Z,5280
2016-05-30T04:23:35.789Z,5296
2016-05-30T04:24:35.791Z,5384
2016-05-30T04:25:35.622Z,5608
2016-05-30T04:26:35.624Z,5752
2016-05-30T04:27:35.783Z,5904
2016-05-30T04:28:35.786Z,6228
2016-05-30T04:29:35.632Z,6736
2016-05-30T04:30:35.791Z,7076
2016-05-30T04:31:38.435Z,7944
2016-05-30T04:32:35.797Z,8348
2016-05-30T04:33:35.799Z,8980
2016-05-30T04:35:04.211Z,8724
2016-05-30T04:35:35.633Z,8868
2016-05-30T04:36:36.667Z,8948
2016-05-30T04:37:35.796Z,8308
2016-05-30T04:38:36.220Z,8024
2016-05-30T04:39:35.706Z,7744
2016-05-30T04:40:35.803Z,7484
2016-05-30T04:41:50.745Z,8280
2016-05-30T04:42:36.058Z,8344
2016-05-30T04:43:36.671Z,8556
2016-05-30T04:44:36.829Z,7400
2016-05-30T04:45:36.456Z,7624
2016-05-30T04:46:36.179Z,10208
2016-05-30T04:47:38.009Z,10720
2016-05-30T04:48:37.653Z,10892
2016-05-30T04:49:36.625Z,11708
2016-05-30T04:50:36.955Z,9600
2016-05-30T04:51:36.942Z,9900
2016-05-30T04:52:35.742Z,13060
2016-05-30T04:53:35.853Z,13800
2016-05-30T04:54:35.841Z,14128
2016-05-30T04:55:35.844Z,9028
2016-05-30T04:56:37.408Z,14464
2016-05-30T04:57:36.927Z,13824
2016-05-30T04:58:35.867Z,12208
2016-05-30T04:59:35.854Z,12072
2016-05-30T05:00:36.591Z,6916
2016-05-30T05:01:35.985Z,7616
2016-05-30T05:02:35.877Z,7880
2016-05-30T05:03:36.052Z,9036
2016-05-30T05:04:35.727Z,10024
2016-05-30T05:05:35.729Z,10984
2016-05-30T05:06:37.076Z,12304
2016-05-30T05:07:36.016Z,17600
2016-05-30T05:08:35.893Z,22720
2016-05-30T05:09:35.912Z,22656
2016-05-30T05:10:35.899Z,24384
2016-05-30T05:11:35.761Z,25920
2016-05-30T05:12:35.779Z,26240
2016-05-30T05:13:35.782Z,25600
2016-05-30T05:14:35.925Z,26016
2016-05-30T05:15:35.772Z,25888
2016-05-30T05:16:35.931Z,25632
2016-05-30T05:17:35.934Z,26048
2016-05-30T05:18:35.952Z,25888
2016-05-30T05:19:35.970Z,26080
2016-05-30T05:20:35.958Z,24672
2016-05-30T05:21:36.476Z,21888
2016-05-30T05:22:36.214Z,18848
2016-05-30T05:23:35.981Z,17504
2016-05-30T05:24:35.844Z,13036
2016-05-30T05:25:35.846Z,13708
2016-05-30T05:26:35.864Z,14956
2016-05-30T05:27:36.024Z,21760
2016-05-30T05:28:36.027Z,19328
2016-05-30T05:29:35.872Z,13144
2016-05-30T05:30:35.734Z,11252
2016-05-30T05:31:36.050Z,11164
2016-05-30T05:32:36.052Z,11636
2016-05-30T05:33:36.086Z,12168
2016-05-30T05:34:35.932Z,13812
2016-05-30T05:35:35.935Z,16480
2016-05-30T05:36:35.969Z,20640
2016-05-30T05:37:36.065Z,23424
2016-05-30T05:38:36.099Z,28992
2016-05-30T05:39:36.009Z,30976
2016-05-30T05:40:36.167Z,26976
2016-05-30T05:41:35.968Z,24864
2016-05-30T05:42:35.970Z,31008
2016-05-30T05:43:35.988Z,31136
2016-05-30T05:44:36.147Z,30560
2016-05-30T05:45:35.993Z,32288
2016-05-30T05:46:36.167Z,33760
2016-05-30T05:47:36.031Z,33056
2016-05-30T05:48:36.017Z,32640
2016-05-30T05:49:36.036Z,34560
2016-05-30T05:50:39.461Z,34432
2016-05-30T05:51:37.556Z,33024
2016-05-30T05:52:37.090Z,21984
2016-05-30T05:53:36.280Z,25024
2016-05-30T05:54:37.347Z,36000
2016-05-30T05:55:36.255Z,27776
2016-05-30T05:56:36.258Z,36608
2016-05-30T05:57:36.479Z,37216
2016-05-30T05:58:36.294Z,36736
2016-05-30T05:59:36.313Z,37696
2016-05-30T06:00:39.113Z,38976
2016-05-30T06:01:38.068Z,39520
2016-05-30T06:02:36.336Z,41504
2016-05-30T06:03:36.386Z,42336
2016-05-30T06:04:36.341Z,39424
2016-05-30T06:05:36.454Z,36640
2016-05-30T06:06:39.332Z,37216
2016-05-30T06:07:36.865Z,38656
2016-05-30T06:08:36.243Z,38528
2016-05-30T06:09:36.824Z,39904
2016-05-30T06:10:36.701Z,43040
2016-05-30T06:11:36.751Z,44000
2016-05-30T06:12:36.301Z,40608
2016-05-30T06:13:36.303Z,36000
2016-05-30T06:14:36.353Z,37888
2016-05-30T06:15:37.746Z,45408
2016-05-30T06:16:36.498Z,47648
2016-05-30T06:17:37.158Z,42176
2016-05-30T06:18:37.582Z,40576
2016-05-30T06:19:37.522Z,39360
2016-05-30T06:20:36.666Z,40000
2016-05-30T06:21:37.512Z,40128
2016-05-30T06:22:36.327Z,44736
2016-05-30T06:23:36.595Z,43040
2016-05-30T06:24:36.614Z,49696
2016-05-30T06:25:36.460Z,52256
2016-05-30T06:26:36.635Z,49024
2016-05-30T06:27:36.638Z,47520
2016-05-30T06:28:36.655Z,50144
2016-05-30T06:29:36.674Z,51808
2016-05-30T06:30:37.739Z,49696
2016-05-30T06:31:36.554Z,47552
2016-05-30T06:32:36.713Z,47392
2016-05-30T06:33:36.732Z,47552
2016-05-30T06:34:36.438Z,50080
2016-05-30T06:35:40.191Z,54176
2016-05-30T06:36:36.959Z,53408
2016-05-30T06:37:37.274Z,51392
2016-05-30T06:38:36.823Z,53824
2016-05-30T06:39:36.685Z,57088
2016-05-30T06:40:36.673Z,56032
2016-05-30T06:41:36.690Z,54592
2016-05-30T06:42:36.882Z,57984
2016-05-30T06:43:36.884Z,60768
2016-05-30T06:44:36.949Z,58592
2016-05-30T06:45:41.733Z,55744
2016-05-30T06:46:36.939Z,56256
2016-05-30T06:47:36.957Z,57152
2016-05-30T06:48:36.819Z,59232
2016-05-30T06:49:36.823Z,61632
2016-05-30T06:50:36.997Z,59264
2016-05-30T06:51:37.030Z,56192
2016-05-30T06:52:36.940Z,56224
2016-05-30T06:53:37.051Z,58688
2016-05-30T06:54:37.319Z,62592
2016-05-30T06:55:37.370Z,66848
2016-05-30T06:56:37.106Z,66560
2016-05-30T06:57:37.125Z,60992
2016-05-30T06:58:37.144Z,52832
2016-05-30T06:59:36.989Z,53696
2016-05-30T07:00:38.977Z,58400
2016-05-30T07:01:37.041Z,61184
2016-05-30T07:02:37.247Z,65920
2016-05-30T07:03:37.219Z,73888
2016-05-30T07:04:37.238Z,77248
2016-05-30T07:05:37.256Z,74944
2016-05-30T07:06:38.336Z,74560
2016-05-30T07:07:37.152Z,77504
2016-05-30T07:08:37.310Z,77056
2016-05-30T07:11:51.882Z,72352
2016-05-30T07:12:37.384Z,70432
2016-05-30T07:13:38.401Z,70720
2016-05-30T07:14:38.171Z,76224
2016-05-30T07:15:39.985Z,77856
2016-05-30T07:16:37.910Z,76000
2016-05-30T07:17:37.476Z,78592
2016-05-30T07:18:37.448Z,81696
2016-05-30T07:19:51.684Z,79872
2016-05-30T07:20:40.734Z,80000
2016-05-30T07:22:06.942Z,78016
2016-05-30T07:22:39.020Z,78912
2016-05-30T07:23:37.586Z,80416
2016-05-30T07:24:37.306Z,85120
2016-05-30T07:25:42.262Z,86176
2016-05-30T07:26:38.375Z,83552
2016-05-30T07:27:37.737Z,83648
2016-05-30T07:28:38.583Z,84960
2016-05-30T07:29:37.539Z,83104
2016-05-30T07:30:41.980Z,77536
2016-05-30T07:31:37.732Z,78560
2016-05-30T07:32:38.078Z,78336
2016-05-30T07:33:37.627Z,75904
2016-05-30T07:35:41.789Z,70848
2016-05-30T07:36:37.699Z,72288
2016-05-30T07:37:37.888Z,78048
2016-05-30T07:38:37.719Z,77120
2016-05-30T07:39:38.378Z,71520
2016-05-30T07:40:37.913Z,71392
2016-05-30T07:41:37.930Z,74464
2016-05-30T07:42:37.933Z,77952
2016-05-30T07:43:37.982Z,75328
2016-05-30T07:44:37.830Z,75712
2016-05-30T07:45:37.707Z,80992
2016-05-30T07:46:37.897Z,84256
2016-05-30T07:47:37.900Z,81728
2016-05-30T07:48:38.074Z,79136
2016-05-30T07:49:37.984Z,81504
2016-05-30T07:50:38.111Z,76960
2016-05-30T07:51:38.567Z,69888
2016-05-30T07:52:38.256Z,65408
2016-05-30T07:53:38.166Z,61408
2016-05-30T07:54:38.200Z,33664
2016-05-30T07:55:39.328Z,63872
2016-05-30T07:56:38.237Z,69536
2016-05-30T07:57:38.098Z,68832
2016-05-30T07:58:38.289Z,67488
2016-05-30T07:59:38.291Z,69376
2016-05-30T08:00:38.153Z,75552
2016-05-30T08:01:38.188Z,80288
2016-05-30T08:02:38.191Z,78304
2016-05-30T08:03:38.380Z,70880
2016-05-30T08:04:38.399Z,70144
2016-05-30T08:05:38.417Z,80448
2016-05-30T08:06:39.013Z,91168
2016-05-30T08:07:38.704Z,96320
2016-05-30T08:08:38.488Z,93440
2016-05-30T08:09:38.491Z,92480
2016-05-30T08:10:38.383Z,95712
2016-05-30T08:11:38.543Z,97856
2016-05-30T08:12:38.560Z,99040
2016-05-30T08:13:38.579Z,100352
2016-05-30T08:14:38.598Z,96192
2016-05-30T08:15:38.632Z,92768
2016-05-30T08:16:38.494Z,90560
2016-05-30T08:17:38.512Z,81760
2016-05-30T08:18:38.687Z,74240
2016-05-30T08:19:38.704Z,70880
2016-05-30T08:20:38.567Z,72896
2016-05-30T08:21:38.601Z,74912
2016-05-30T08:22:39.354Z,70400
2016-05-30T08:23:38.638Z,63360
2016-05-30T08:24:38.827Z,62112
2016-05-30T08:25:38.845Z,67072
2016-05-30T08:26:38.708Z,67360
2016-05-30T08:27:38.726Z,68160
2016-05-30T08:28:52.932Z,70144
2016-05-30T08:29:52.950Z,68064
2016-05-30T08:31:39.971Z,62656
2016-05-30T08:32:39.083Z,63456
2016-05-30T08:33:39.492Z,65888
2016-05-30T08:34:39.027Z,64032
2016-05-30T08:35:39.450Z,62752
2016-05-30T08:36:39.875Z,64896
2016-05-30T08:37:39.847Z,69920
2016-05-30T08:38:41.708Z,67712
2016-05-30T08:39:40.883Z,67744
2016-05-30T08:40:39.136Z,69408
2016-05-30T08:41:40.061Z,73152
2016-05-30T08:42:40.033Z,74240
2016-05-30T08:43:39.221Z,73184
2016-05-30T08:44:42.288Z,54624
2016-05-30T08:45:39.149Z,73504
2016-05-30T08:46:40.824Z,71072
2016-05-30T08:47:39.826Z,67424
2016-05-30T08:48:39.673Z,67584
2016-05-30T08:49:39.832Z,52416
2016-05-30T08:50:39.195Z,55200
2016-05-30T08:51:39.213Z,39872
2016-05-30T08:52:39.387Z,31776
2016-05-30T08:53:40.092Z,29184
2016-05-30T08:54:39.517Z,27712
2016-05-30T08:55:40.629Z,28832
2016-05-30T08:56:39.445Z,30496
2016-05-30T08:57:40.260Z,30240
2016-05-30T08:58:40.092Z,27936
2016-05-30T08:59:39.828Z,23712
2016-05-30T09:00:39.533Z,21728
2016-05-30T09:01:39.520Z,21856
2016-05-30T09:02:39.555Z,22464
2016-05-30T09:03:39.558Z,25216
2016-05-30T09:04:39.576Z,28224
2016-05-30T09:05:39.594Z,28224
2016-05-30T09:06:39.784Z,26720
2016-05-30T09:07:40.208Z,23136
2016-05-30T09:08:39.665Z,21120
2016-05-30T09:09:39.480Z,18304
2016-05-30T09:10:39.654Z,16288
2016-05-30T09:11:39.672Z,15096
2016-05-30T09:12:39.519Z,14652
2016-05-30T09:13:39.694Z,14624
2016-05-30T09:14:39.712Z,15116
2016-05-30T09:15:39.715Z,16032
2016-05-30T09:16:39.420Z,17344
2016-05-30T09:17:39.735Z,18272
2016-05-30T09:18:39.754Z,19584
2016-05-30T09:19:39.773Z,20736
2016-05-30T09:20:39.791Z,21504
2016-05-30T09:21:40.231Z,21728
2016-05-30T09:22:40.093Z,21344
2016-05-30T09:23:39.814Z,20224
2016-05-30T09:24:39.817Z,19328
2016-05-30T09:25:39.851Z,18368
2016-05-30T09:26:39.854Z,17216
2016-05-30T09:27:39.856Z,16096
2016-05-30T09:28:39.717Z,15032
2016-05-30T09:29:39.878Z,14812
2016-05-30T09:30:39.880Z,15484
2016-05-30T09:31:39.898Z,16800
2016-05-30T09:32:39.917Z,18496
2016-05-30T09:33:39.920Z,20192
2016-05-30T09:34:39.938Z,21568
2016-05-30T09:35:39.941Z,22528
2016-05-30T09:36:40.443Z,22624
2016-05-30T09:37:40.697Z,22848
2016-05-30T09:38:39.808Z,24000
2016-05-30T09:39:39.982Z,25600
2016-05-30T09:40:40.000Z,26976
2016-05-30T09:41:39.847Z,27616
2016-05-30T09:42:40.005Z,26592
2016-05-30T09:43:40.009Z,24096
2016-05-30T09:44:39.871Z,22272
2016-05-30T09:45:40.029Z,19872
2016-05-30T09:46:40.049Z,19680
2016-05-30T09:47:42.316Z,18816
2016-05-30T09:48:55.912Z,20320
2016-05-30T09:49:40.385Z,20672
2016-05-30T09:50:40.090Z,19616
2016-05-30T09:51:40.390Z,17332
2016-05-30T09:52:40.782Z,16956
2016-05-30T09:53:40.129Z,17660
2016-05-30T09:54:40.147Z,19104
2016-05-30T09:55:40.134Z,19712
2016-05-30T09:56:40.153Z,21088
2016-05-30T09:57:55.640Z,20992
2016-05-30T09:59:08.536Z,18496
2016-05-30T09:59:40.176Z,17620
2016-05-30T10:00:40.679Z,17012
2016-05-30T10:01:41.198Z,17820
2016-05-30T10:02:40.763Z,18880
2016-05-30T10:03:43.031Z,19648
2016-05-30T10:04:40.253Z,20480
2016-05-30T10:05:41.647Z,21632
2016-05-30T10:06:41.149Z,22784
2016-05-30T10:07:41.230Z,24448
2016-05-30T10:08:40.826Z,25216
2016-05-30T10:09:40.283Z,25280
2016-05-30T10:10:40.300Z,24992
2016-05-30T10:11:40.147Z,24288
2016-05-30T10:12:41.150Z,23456
2016-05-30T10:13:40.339Z,24608
2016-05-30T10:14:41.499Z,25792
2016-05-30T10:15:40.345Z,26560
2016-05-30T10:16:40.347Z,26752
2016-05-30T10:17:40.929Z,26304
2016-05-30T10:18:40.212Z,25920
2016-05-30T10:19:40.387Z,25376
2016-05-30T10:20:40.390Z,23168
2016-05-30T10:21:40.579Z,21152
2016-05-30T10:22:41.020Z,19808
2016-05-30T10:23:40.445Z,19072
2016-05-30T10:24:40.494Z,18144
2016-05-30T10:25:40.637Z,18944
2016-05-30T10:26:40.468Z,18272
2016-05-30T10:27:40.331Z,16844
2016-05-30T10:28:40.317Z,16364
2016-05-30T10:29:40.476Z,16004
2016-05-30T10:30:40.339Z,15624
2016-05-30T10:31:40.403Z,15264
2016-05-30T10:32:40.359Z,14996
2016-05-30T10:33:40.534Z,15256
2016-05-30T10:34:40.552Z,15948
2016-05-30T10:35:40.539Z,16440
2016-05-30T10:36:40.808Z,17008
2016-05-30T10:37:40.436Z,16932
2016-05-30T10:38:40.578Z,16412
2016-05-30T10:39:40.675Z,15804
2016-05-30T10:40:40.599Z,15864
2016-05-30T10:41:40.462Z,16508
2016-05-30T10:42:40.621Z,17408
2016-05-30T10:43:40.639Z,17680
2016-05-30T10:44:40.642Z,16460
2016-05-30T10:45:40.488Z,15620
2016-05-30T10:46:40.662Z,16060
2016-05-30T10:47:40.666Z,16668
2016-05-30T10:48:40.683Z,17208
2016-05-30T10:49:40.701Z,17888
2016-05-30T10:50:40.704Z,18592
2016-05-30T10:51:41.005Z,19296
2016-05-30T10:52:40.741Z,19104
2016-05-30T10:53:40.729Z,18944
2016-05-30T10:54:40.732Z,18304
2016-05-30T10:55:40.749Z,17952
2016-05-30T10:56:40.752Z,16912
2016-05-30T10:57:40.615Z,16680
2016-05-30T10:58:40.632Z,16988
2016-05-30T10:59:40.792Z,18432
2016-05-30T11:00:40.794Z,19040
2016-05-30T11:01:40.656Z,20544
2016-05-30T11:02:40.815Z,22432
2016-05-30T11:03:40.817Z,24320
2016-05-30T11:04:40.836Z,24352
2016-05-30T11:05:40.854Z,21920
2016-05-30T11:08:41.519Z,20320
2016-05-30T11:09:41.239Z,20256
2016-05-30T11:10:40.946Z,20576
2016-05-30T11:11:41.417Z,21408
2016-05-30T11:12:41.123Z,22176
2016-05-30T11:13:40.938Z,22496
2016-05-30T11:14:40.941Z,21824
2016-05-30T11:15:40.960Z,21376
2016-05-30T11:16:42.008Z,20128
2016-05-30T11:17:41.277Z,17696
2016-05-30T11:18:40.983Z,14972
2016-05-30T11:19:40.986Z,12332
2016-05-30T11:20:41.098Z,10348
2016-05-30T11:21:40.694Z,8720
2016-05-30T11:22:42.666Z,7972
2016-05-30T11:23:42.888Z,7360
2016-05-30T11:24:40.890Z,6908
2016-05-30T11:25:41.721Z,6568
2016-05-30T11:26:41.942Z,6228
2016-05-30T11:27:40.913Z,6092
2016-05-30T11:28:41.087Z,6020
2016-05-30T11:29:41.091Z,6084
2016-05-30T11:30:40.953Z,6132
2016-05-30T11:31:41.112Z,6264
2016-05-30T11:32:58.708Z,6364
2016-05-30T11:33:42.226Z,6492
2016-05-30T11:34:40.854Z,6940
2016-05-30T11:35:41.154Z,7636
2016-05-30T11:36:42.641Z,8664
2016-05-30T11:37:41.300Z,9916
2016-05-30T11:38:41.005Z,11472
2016-05-30T11:39:41.181Z,13088
2016-05-30T11:40:41.183Z,14896
2016-05-30T11:41:41.029Z,16864
2016-05-30T11:42:41.203Z,17824
2016-05-30T11:43:41.206Z,18560
2016-05-30T11:44:41.053Z,19360
2016-05-30T11:45:41.086Z,20640
2016-05-30T11:46:41.266Z,21792
2016-05-30T11:47:40.836Z,22336
2016-05-30T11:48:41.312Z,23360
2016-05-30T11:49:41.037Z,24832
2016-05-30T11:50:41.364Z,26272
2016-05-30T11:51:41.717Z,27200
2016-05-30T11:52:42.727Z,28416
2016-05-30T11:53:41.409Z,29088
2016-05-30T11:54:41.419Z,29344
2016-05-30T11:55:41.128Z,28512
2016-05-30T11:56:41.290Z,27328
2016-05-30T11:57:41.468Z,26016
2016-05-30T11:58:41.488Z,25216
2016-05-30T11:59:41.494Z,24448
2016-05-30T12:00:41.498Z,23424
2016-05-30T12:01:41.518Z,22528
2016-05-30T12:02:41.256Z,22048
2016-05-30T12:03:41.526Z,21568
2016-05-30T12:04:41.529Z,21088
2016-05-30T12:05:41.392Z,21568
2016-05-30T12:06:43.020Z,21664
2016-05-30T12:07:43.054Z,21568
2016-05-30T12:08:41.432Z,21504
2016-05-30T12:09:41.451Z,21344
2016-05-30T12:10:41.438Z,21792
2016-05-30T12:11:41.613Z,22400
2016-05-30T12:12:41.615Z,23040
2016-05-30T12:13:41.634Z,24352
2016-05-30T12:14:41.652Z,25792
2016-05-30T12:15:41.498Z,26656
2016-05-30T12:16:41.517Z,27200
2016-05-30T12:17:41.676Z,27360
2016-05-30T12:18:41.679Z,27328
2016-05-30T12:19:41.712Z,26784
2016-05-30T12:20:41.700Z,25984
2016-05-30T12:21:41.828Z,25184
2016-05-30T12:22:41.611Z,24480
2016-05-30T12:23:41.427Z,24032
2016-05-30T12:24:41.601Z,23936
2016-05-30T12:25:41.760Z,24128
2016-05-30T12:26:43.778Z,24832
2016-05-30T12:27:41.781Z,25440
2016-05-30T12:28:41.783Z,26112
2016-05-30T12:29:41.802Z,26304
2016-05-30T12:30:42.461Z,26464
2016-05-30T12:31:41.824Z,26400
2016-05-30T12:32:41.826Z,26656
2016-05-30T12:33:41.688Z,27040
2016-05-30T12:34:41.862Z,26816
2016-05-30T12:35:44.037Z,25728
2016-05-30T12:36:43.946Z,24576
2016-05-30T12:37:43.090Z,23552
2016-05-30T12:38:41.748Z,22400
2016-05-30T12:39:41.923Z,21408
2016-05-30T12:40:41.973Z,21024
2016-05-30T12:41:42.287Z,20128
2016-05-30T12:42:43.446Z,19488
2016-05-30T12:43:42.887Z,19264
2016-05-30T12:44:42.202Z,19744
2016-05-30T12:45:42.845Z,20736
2016-05-30T12:46:42.004Z,22240
2016-05-30T12:47:42.006Z,23488
2016-05-30T12:48:41.870Z,24256
2016-05-30T12:49:41.872Z,24160
2016-05-30T12:50:43.906Z,23392
2016-05-30T12:51:44.314Z,22368
2016-05-30T12:52:42.176Z,21056
2016-05-30T12:53:43.414Z,20224
2016-05-30T12:54:43.072Z,19104
2016-05-30T12:55:42.481Z,18080
2016-05-30T12:56:42.109Z,17664
2016-05-30T12:57:42.112Z,17312
2016-05-30T12:58:42.130Z,17728
2016-05-30T12:59:42.133Z,18848
2016-05-30T13:00:42.026Z,20736
2016-05-30T13:01:42.169Z,23136
2016-05-30T13:02:42.016Z,24960
2016-05-30T13:03:42.190Z,25696
2016-05-30T13:04:42.224Z,26400
2016-05-30T13:05:42.211Z,26304
2016-05-30T13:06:42.089Z,25728
2016-05-30T13:07:43.014Z,25856
2016-05-30T13:08:42.251Z,25920
2016-05-30T13:09:42.254Z,25600
2016-05-30T13:10:42.272Z,24768
2016-05-30T13:11:42.274Z,24000
2016-05-30T13:12:42.293Z,23008
2016-05-30T13:13:42.186Z,21792
2016-05-30T13:14:42.360Z,20544
2016-05-30T13:15:42.176Z,19648
2016-05-30T13:16:42.334Z,19648
2016-05-30T13:17:42.337Z,20192
2016-05-30T13:18:42.200Z,20544
2016-05-30T13:19:42.389Z,19904
2016-05-30T13:20:42.392Z,18176
2016-05-30T13:21:42.504Z,15904
2016-05-30T13:22:42.711Z,13484
2016-05-30T13:23:42.259Z,12280
2016-05-30T13:24:42.262Z,11168
2016-05-30T13:25:42.265Z,10200
2016-05-30T13:26:42.439Z,9472
2016-05-30T13:27:42.458Z,9012